Big Bend National Park, TX

3:46 PM CDT on September 29, 2016 (GMT -0500)
Big Bend - Chisos View | | Change Station

Elev 3497 ft 29.47 °N, 103.38 °W | Updated 1 minute ago

Clear
Clear
77.0 °F
Feels Like 79 °F
N
1.5
Wind Variable Wind from East
Gusts 5.0 mph

Today
High -- | Low -- °F
--% Chance of Precip.
Yesterday
High -- | Low -- °F
Precip. -- in
Pressure 30.20 in
Visibility 10.0 miles
Clouds Clear
Heat Index 79 °F
Dew Point 64 °F
Humidity 64%
Rainfall 0.00 in
Snow Depth Not available.
7:45 AM 7:40 PM
Waning Crescent, 1% visible
METAR KPRS 292035Z AUTO 07008G15KT 10SM CLR 30/15 A3020 RMK AO2 T03040150
Pressure 30.20 in
Visibility 10.0 miles
Clouds Clear
Heat Index 79 °F
Dew Point 64 °F
Humidity 64%
Rainfall 0.00 in
Snow Depth Not available.
7:45 AM 7:40 PM
Waning Crescent, 1% visible
METAR KPRS 292035Z AUTO 07008G15KT 10SM CLR 30/15 A3020 RMK AO2 T03040150

10-Day Weather Forecast

Almanac

Astronomy

Sep. 29, 2016 Rise Set
Actual Time
Civil Twilight
Nautical Twilight
Astronomical Twilight
Moon
Length of Visible Light
Length of Day
Tomorrow will be .
, % of the Moon is Illuminated

Today's Extremes

State Highs State Lows

Community

WunderPhotos

Upload Photos

1,942,564 photos uploaded!

WunderBlog® & News

Nearby

Air Quality

  Air Quality AQ Index Pollutant
Not available.

Snow Depth

Station Depth Elevation

Earthquake Activity

City Distance Mag. Time & Date
Minimum magnitude displayed is 2.5.

Coastal Water Temperatures

Place Temperature

Stations

Nearby Weather Stations

Station Location Temp. Windchill Dew Point Humidity Wind Precip. Elev Updated Type
                   

Watches & Warnings

There are currently no watches in effect.